createdAt,value
2024-01-20T00:00:14.529Z,2.00
2024-01-20T00:02:41.132Z,4.15
2024-01-20T00:05:08.580Z,3.75
2024-01-20T00:07:35.393Z,2.58
2024-01-20T00:10:02.424Z,2.28
2024-01-20T00:12:31.519Z,2.45
2024-01-20T00:14:58.219Z,3.70
2024-01-20T00:17:27.742Z,3.30
2024-01-20T00:19:56.170Z,3.78
2024-01-20T00:22:23.896Z,4.97
2024-01-20T00:24:51.155Z,3.70
2024-01-20T00:27:18.737Z,3.67
2024-01-20T00:29:46.650Z,3.65
2024-01-20T00:32:13.900Z,4.57
2024-01-20T00:34:51.477Z,2.90
2024-01-20T00:37:26.774Z,2.70
2024-01-20T00:39:53.314Z,4.82
2024-01-20T00:42:19.779Z,3.92
2024-01-20T00:44:46.457Z,4.15
2024-01-20T00:47:13.083Z,2.50
2024-01-20T00:49:39.872Z,4.53
2024-01-20T00:52:06.808Z,5.85
2024-01-20T00:54:33.435Z,4.57
2024-01-20T00:56:59.955Z,3.65
2024-01-20T00:59:26.441Z,3.08
2024-01-20T01:01:53.016Z,3.22
2024-01-20T01:04:19.530Z,2.60
2024-01-20T01:06:46.016Z,2.85
2024-01-20T01:09:12.602Z,5.25
2024-01-20T01:11:39.153Z,5.43
2024-01-20T01:14:05.711Z,5.13
2024-01-20T01:16:32.235Z,4.53
2024-01-20T01:18:59.002Z,4.75
2024-01-20T01:21:25.475Z,5.20
2024-01-20T01:23:52.017Z,5.68
2024-01-20T01:26:18.992Z,4.18
2024-01-20T01:28:45.853Z,4.63
2024-01-20T01:31:12.780Z,4.32
2024-01-20T01:33:39.356Z,4.40
2024-01-20T01:36:06.555Z,2.80
2024-01-20T01:38:33.358Z,3.22
2024-01-20T01:41:00.181Z,5.50
2024-01-20T01:43:26.795Z,3.80
2024-01-20T01:45:53.459Z,3.22
2024-01-20T01:48:20.555Z,3.65
2024-01-20T01:50:48.086Z,4.03
2024-01-20T01:53:15.303Z,3.60
2024-01-20T01:55:44.845Z,3.70
2024-01-20T01:58:11.362Z,4.15
2024-01-20T02:00:38.450Z,3.95
2024-01-20T02:03:05.681Z,2.47
2024-01-20T02:05:32.376Z,3.42
2024-01-20T02:07:59.867Z,2.95
2024-01-20T02:10:26.438Z,2.78
2024-01-20T02:12:53.580Z,3.35
2024-01-20T02:15:20.275Z,2.90
2024-01-20T02:17:53.980Z,5.85
2024-01-20T02:20:20.969Z,3.83
2024-01-20T02:22:47.910Z,2.65
2024-01-20T02:25:14.453Z,3.30
2024-01-20T02:27:41.035Z,6.53
2024-01-20T02:30:08.447Z,4.65
2024-01-20T02:32:35.127Z,3.88
2024-01-20T02:35:01.844Z,3.85
2024-01-20T02:37:28.436Z,5.70
2024-01-20T02:39:54.921Z,5.53
2024-01-20T02:42:21.532Z,3.88
2024-01-20T02:44:48.181Z,5.18
2024-01-20T02:47:14.877Z,5.13
2024-01-20T02:49:41.566Z,5.15
2024-01-20T02:52:08.370Z,5.22
2024-01-20T02:54:35.015Z,2.80
2024-01-20T02:57:01.651Z,3.90
2024-01-20T02:59:28.197Z,3.50
2024-01-20T03:01:54.803Z,3.67
2024-01-20T03:04:21.407Z,2.72
2024-01-20T03:06:48.139Z,3.90
2024-01-20T03:09:15.959Z,2.92
2024-01-20T03:11:45.483Z,3.97
2024-01-20T03:14:12.184Z,4.68
2024-01-20T03:16:39.509Z,4.45
2024-01-20T03:19:07.545Z,4.63
2024-01-20T03:21:35.392Z,5.40
2024-01-20T03:24:02.229Z,3.92
2024-01-20T03:26:29.057Z,3.90
2024-01-20T03:28:55.569Z,3.40
2024-01-20T03:31:22.153Z,2.63
2024-01-20T03:33:48.731Z,3.40
2024-01-20T03:36:15.395Z,6.00
2024-01-20T03:38:41.910Z,5.07
2024-01-20T03:41:08.512Z,3.63
2024-01-20T03:43:35.033Z,4.13
2024-01-20T03:46:01.577Z,3.90
2024-01-20T03:48:28.148Z,2.83
2024-01-20T03:50:54.742Z,2.80
2024-01-20T03:53:21.335Z,3.38
2024-01-20T03:55:47.838Z,3.30
2024-01-20T03:58:14.309Z,2.95
2024-01-20T04:00:40.934Z,2.90
2024-01-20T04:03:07.574Z,4.20
2024-01-20T04:05:34.196Z,3.20
2024-01-20T04:08:00.734Z,4.15
2024-01-20T04:10:27.328Z,6.28
2024-01-20T04:12:53.844Z,5.93
2024-01-20T04:15:20.367Z,4.68
2024-01-20T04:17:47.135Z,4.28
2024-01-20T04:20:13.689Z,4.35
2024-01-20T04:22:40.224Z,4.68
2024-01-20T04:25:07.342Z,4.50
2024-01-20T04:27:35.208Z,5.03
2024-01-20T04:30:01.889Z,3.33
2024-01-20T04:32:28.639Z,5.88
2024-01-20T04:34:55.094Z,5.45
2024-01-20T04:37:21.660Z,2.97
2024-01-20T04:39:48.409Z,3.40
2024-01-20T04:42:14.962Z,2.80
2024-01-20T04:44:41.447Z,3.13
2024-01-20T04:47:07.954Z,4.05
2024-01-20T04:49:34.693Z,2.80
2024-01-20T04:52:03.191Z,2.47
2024-01-20T04:54:30.125Z,3.80
2024-01-20T04:56:58.491Z,5.13
2024-01-20T04:59:25.690Z,2.47
2024-01-20T05:01:53.924Z,3.10
2024-01-20T05:04:20.617Z,2.30
2024-01-20T05:06:47.400Z,3.08
2024-01-20T05:09:14.819Z,3.05
2024-01-20T05:11:41.538Z,2.92
2024-01-20T05:14:08.859Z,1.63
2024-01-20T05:16:35.522Z,2.65
2024-01-20T05:19:02.723Z,2.55
2024-01-20T05:21:29.475Z,3.78
2024-01-20T05:23:58.086Z,3.95
2024-01-20T05:26:24.954Z,3.58
2024-01-20T05:28:51.497Z,3.45
2024-01-20T05:31:18.249Z,4.85
2024-01-20T05:33:44.953Z,4.25
2024-01-20T05:36:13.889Z,2.22
2024-01-20T05:38:40.430Z,4.20
2024-01-20T05:41:08.747Z,3.67
2024-01-20T05:43:35.490Z,3.38
2024-01-20T05:46:06.494Z,4.88
2024-01-20T05:48:34.052Z,6.07
2024-01-20T05:51:00.713Z,3.13
2024-01-20T05:53:27.757Z,3.92
2024-01-20T05:55:54.207Z,4.72
2024-01-20T05:58:20.687Z,5.43
2024-01-20T06:00:47.251Z,3.25
2024-01-20T06:03:13.779Z,3.15
2024-01-20T06:05:40.311Z,4.75
2024-01-20T06:08:07.041Z,4.45
2024-01-20T06:10:33.520Z,6.53
2024-01-20T06:13:00.071Z,2.55
2024-01-20T06:15:26.691Z,6.05
2024-01-20T06:17:53.357Z,3.20
2024-01-20T06:20:20.751Z,3.20
2024-01-20T06:22:47.360Z,3.40
2024-01-20T06:25:14.312Z,3.88
2024-01-20T06:27:46.355Z,4.82
2024-01-20T06:30:15.753Z,3.60
2024-01-20T06:32:42.308Z,4.53
2024-01-20T06:35:09.752Z,3.35
2024-01-20T06:37:36.490Z,3.55
2024-01-20T06:40:03.374Z,2.92
2024-01-20T06:42:30.040Z,3.53
2024-01-20T06:44:58.039Z,3.90
2024-01-20T06:47:27.301Z,2.33
2024-01-20T06:49:54.863Z,3.55
2024-01-20T06:52:21.880Z,4.15
2024-01-20T06:54:49.332Z,3.25
2024-01-20T06:57:15.890Z,3.53
2024-01-20T06:59:42.444Z,3.28
2024-01-20T07:02:09.695Z,2.47
2024-01-20T07:04:36.338Z,6.43
2024-01-20T07:07:03.008Z,1.52
2024-01-20T07:09:29.582Z,4.53
2024-01-20T07:11:58.918Z,3.67
2024-01-20T07:14:26.355Z,2.22
2024-01-20T07:16:52.913Z,3.83
2024-01-20T07:19:19.434Z,2.78
2024-01-20T07:21:45.949Z,3.35
2024-01-20T07:24:12.598Z,4.75
2024-01-20T07:26:39.154Z,4.43
2024-01-20T07:29:05.697Z,2.65
2024-01-20T07:31:32.272Z,3.45
2024-01-20T07:33:59.493Z,4.25
2024-01-20T07:36:26.208Z,3.67
2024-01-20T07:38:52.787Z,3.42
2024-01-20T07:41:19.534Z,3.45
2024-01-20T07:43:46.108Z,3.67
2024-01-20T07:46:13.353Z,5.60
2024-01-20T07:48:40.178Z,3.85
2024-01-20T07:51:06.769Z,3.65
2024-01-20T07:53:33.300Z,3.58
2024-01-20T07:55:59.833Z,4.20
2024-01-20T07:58:26.349Z,4.45
2024-01-20T08:00:52.995Z,4.03
2024-01-20T08:03:19.571Z,3.90
2024-01-20T08:05:47.031Z,2.97
2024-01-20T08:08:13.736Z,3.75
2024-01-20T08:10:40.492Z,3.25
2024-01-20T08:13:07.155Z,5.07
2024-01-20T08:15:33.758Z,4.57
2024-01-20T08:18:00.617Z,4.03
2024-01-20T08:20:27.304Z,3.95
2024-01-20T08:22:53.835Z,5.43
2024-01-20T08:25:20.403Z,4.05
2024-01-20T08:27:46.994Z,5.13
2024-01-20T08:30:14.043Z,4.20
2024-01-20T08:32:41.609Z,2.78
2024-01-20T08:35:09.864Z,2.63
2024-01-20T08:37:36.413Z,2.15
2024-01-20T08:40:03.683Z,3.33
2024-01-20T08:42:30.336Z,4.65
2024-01-20T08:44:56.987Z,5.03
2024-01-20T08:47:23.531Z,3.72
2024-01-20T08:49:52.922Z,2.63
2024-01-20T08:52:20.107Z,4.65
2024-01-20T08:54:46.888Z,5.35
2024-01-20T08:57:13.652Z,3.70
2024-01-20T08:59:40.180Z,4.45
2024-01-20T09:02:07.102Z,2.80
2024-01-20T09:04:33.707Z,5.45
2024-01-20T09:07:00.319Z,3.15
2024-01-20T09:09:26.902Z,5.22
2024-01-20T09:11:53.432Z,4.03
2024-01-20T09:14:19.939Z,4.15
2024-01-20T09:16:46.600Z,3.25
2024-01-20T09:19:13.232Z,4.20
2024-01-20T09:21:39.838Z,3.53
2024-01-20T09:24:06.623Z,5.22
2024-01-20T09:26:33.177Z,2.92
2024-01-20T09:28:59.726Z,4.60
2024-01-20T09:31:26.236Z,2.53
2024-01-20T09:33:52.919Z,3.75
2024-01-20T09:36:19.521Z,5.45
2024-01-20T09:38:46.060Z,3.97
2024-01-20T09:41:12.942Z,5.05
2024-01-20T09:43:40.462Z,4.65
2024-01-20T09:46:08.008Z,3.85
2024-01-20T09:48:34.635Z,4.82
2024-01-20T09:51:01.307Z,4.30
2024-01-20T09:53:28.447Z,4.15
2024-01-20T09:55:56.359Z,4.88
2024-01-20T09:58:23.107Z,4.28
2024-01-20T10:00:50.878Z,2.83
2024-01-20T10:03:18.589Z,3.58
2024-01-20T10:05:45.258Z,4.07
2024-01-20T10:08:12.308Z,3.95
2024-01-20T10:10:38.882Z,3.78
2024-01-20T10:13:05.433Z,3.40
2024-01-20T10:15:34.494Z,4.75
2024-01-20T10:18:09.558Z,4.07
2024-01-20T10:20:37.643Z,4.20
2024-01-20T10:23:06.633Z,4.38
2024-01-20T10:25:33.518Z,3.17
2024-01-20T10:28:00.530Z,4.20
2024-01-20T10:30:27.816Z,5.07
2024-01-20T10:33:04.509Z,2.90
2024-01-20T10:35:36.599Z,3.60
2024-01-20T10:38:09.958Z,2.63
2024-01-20T10:40:40.007Z,4.85
2024-01-20T10:43:14.363Z,2.67
2024-01-20T10:45:51.718Z,4.05
2024-01-20T10:48:27.029Z,4.25
2024-01-20T10:50:58.435Z,4.13
2024-01-20T10:53:31.986Z,4.15
2024-01-20T10:55:59.555Z,3.63
2024-01-20T10:58:34.685Z,4.75
2024-01-20T11:01:01.524Z,4.68
2024-01-20T11:03:29.220Z,5.97
2024-01-20T11:05:55.839Z,3.28
2024-01-20T11:08:27.142Z,3.83
2024-01-20T11:10:55.552Z,4.32
2024-01-20T11:13:27.338Z,5.20
2024-01-20T11:15:54.179Z,3.15
2024-01-20T11:18:22.560Z,4.00
2024-01-20T11:21:02.684Z,4.55
2024-01-20T11:23:30.069Z,3.08
2024-01-20T11:25:58.370Z,4.30
2024-01-20T11:28:31.931Z,4.97
2024-01-20T11:30:59.220Z,3.42
2024-01-20T11:33:26.240Z,3.00
2024-01-20T11:35:53.974Z,3.58
2024-01-20T11:38:21.461Z,3.35
2024-01-20T11:41:00.958Z,3.30
2024-01-20T11:43:27.901Z,3.67
2024-01-20T11:45:56.058Z,4.88
2024-01-20T11:48:23.134Z,4.25
2024-01-20T11:50:50.796Z,5.07
2024-01-20T11:53:17.708Z,3.75
2024-01-20T11:55:59.804Z,4.60
2024-01-20T11:58:27.913Z,4.88
2024-01-20T12:00:56.405Z,3.92
2024-01-20T12:03:23.402Z,3.88
2024-01-20T12:05:51.326Z,4.88
2024-01-20T12:08:18.889Z,6.05
2024-01-20T12:10:48.849Z,4.47
2024-01-20T12:13:17.533Z,5.57
2024-01-20T12:15:45.041Z,2.55
2024-01-20T12:18:11.801Z,3.33
2024-01-20T12:20:38.893Z,4.45
2024-01-20T12:23:05.660Z,2.55
2024-01-20T12:25:33.211Z,4.43
2024-01-20T12:28:00.304Z,2.72
2024-01-20T12:30:27.955Z,3.38
2024-01-20T12:32:54.519Z,3.47
2024-01-20T12:35:21.189Z,4.82
2024-01-20T12:37:49.967Z,2.30
2024-01-20T12:40:16.972Z,4.72
2024-01-20T12:42:43.859Z,2.47
2024-01-20T12:45:12.162Z,2.78
2024-01-20T12:47:39.462Z,2.92
2024-01-20T12:50:06.566Z,2.38
2024-01-20T12:52:33.451Z,3.00
2024-01-20T12:55:00.527Z,3.75
2024-01-20T12:57:27.060Z,3.38
2024-01-20T12:59:53.669Z,3.17
2024-01-20T13:02:20.281Z,3.03
2024-01-20T13:04:46.972Z,3.35
2024-01-20T13:07:15.248Z,4.25
2024-01-20T13:09:42.552Z,1.98
2024-01-20T13:12:09.693Z,2.00
2024-01-20T13:14:36.648Z,4.65
2024-01-20T13:17:04.046Z,2.25
2024-01-20T13:19:31.112Z,2.35
2024-01-20T13:21:57.808Z,3.33
2024-01-20T13:24:24.488Z,4.07
2024-01-20T13:26:51.262Z,2.78
2024-01-20T13:29:17.979Z,3.55
2024-01-20T13:31:44.527Z,2.80
2024-01-20T13:34:11.516Z,2.80
2024-01-20T13:36:38.216Z,2.55
2024-01-20T13:39:06.282Z,2.30
2024-01-20T13:41:34.766Z,4.47
2024-01-20T13:44:01.257Z,2.10
2024-01-20T13:46:27.781Z,3.75
2024-01-20T13:48:54.463Z,3.78
2024-01-20T13:51:22.975Z,3.60
2024-01-20T13:53:49.649Z,2.50
2024-01-20T13:56:16.192Z,3.85
2024-01-20T13:58:42.681Z,2.72
2024-01-20T14:01:09.541Z,3.38
2024-01-20T14:03:36.332Z,3.45
2024-01-20T14:06:04.054Z,3.95
2024-01-20T14:08:30.764Z,3.35
2024-01-20T14:10:57.413Z,2.90
2024-01-20T14:13:23.907Z,3.92
2024-01-20T14:15:50.652Z,3.88
2024-01-20T14:18:17.418Z,3.20
2024-01-20T14:20:44.061Z,3.28
2024-01-20T14:23:10.616Z,4.30
2024-01-20T14:25:37.170Z,2.75
2024-01-20T14:28:05.189Z,4.57
2024-01-20T14:30:31.926Z,3.97
2024-01-20T14:32:58.560Z,3.60
2024-01-20T14:35:27.047Z,4.45
2024-01-20T14:37:54.514Z,2.20
2024-01-20T14:40:21.415Z,3.83
2024-01-20T14:42:48.285Z,4.00
2024-01-20T14:45:15.333Z,3.63
2024-01-20T14:47:41.979Z,3.58
2024-01-20T14:50:09.255Z,2.35
2024-01-20T14:52:35.825Z,4.13
2024-01-20T14:55:02.602Z,3.85
2024-01-20T14:57:29.209Z,3.45
2024-01-20T14:59:55.713Z,3.17
2024-01-20T15:02:22.235Z,4.35
2024-01-20T15:04:48.888Z,3.72
2024-01-20T15:07:15.442Z,5.38
2024-01-20T15:09:42.528Z,3.65
2024-01-20T15:12:09.472Z,3.30
2024-01-20T15:14:36.194Z,4.05
2024-01-20T15:17:02.705Z,3.92
2024-01-20T15:19:29.449Z,4.00
2024-01-20T15:21:56.137Z,3.08
2024-01-20T15:24:22.724Z,2.35
2024-01-20T15:26:49.225Z,4.63
2024-01-20T15:29:15.750Z,3.35
2024-01-20T15:31:42.262Z,3.67
2024-01-20T15:34:08.969Z,2.13
2024-01-20T15:36:35.635Z,4.13
2024-01-20T15:39:02.272Z,3.55
2024-01-20T15:41:28.989Z,5.35
2024-01-20T15:43:55.580Z,4.45
2024-01-20T15:46:22.107Z,2.88
2024-01-20T15:48:48.794Z,4.13
2024-01-20T15:51:15.635Z,4.57
2024-01-20T15:53:42.382Z,4.22
2024-01-20T15:56:11.374Z,3.70
2024-01-20T15:58:42.333Z,2.88
2024-01-20T16:01:09.192Z,3.75
2024-01-20T16:03:35.843Z,3.65
2024-01-20T16:06:02.630Z,4.65
2024-01-20T16:08:29.290Z,2.97
2024-01-20T16:10:55.905Z,5.22
2024-01-20T16:13:22.507Z,3.70
2024-01-20T16:15:49.090Z,4.20
2024-01-20T16:18:16.472Z,2.97
2024-01-20T16:20:43.062Z,4.82
2024-01-20T16:23:10.559Z,5.22
2024-01-20T16:25:37.118Z,3.78
2024-01-20T16:28:03.807Z,5.38
2024-01-20T16:30:30.609Z,3.13
2024-01-20T16:32:57.243Z,5.00
2024-01-20T16:35:23.720Z,5.25
2024-01-20T16:37:50.395Z,3.45
2024-01-20T16:40:16.924Z,4.18
2024-01-20T16:42:43.578Z,5.05
2024-01-20T16:45:10.563Z,4.28
2024-01-20T16:47:37.256Z,5.03
2024-01-20T16:50:04.221Z,4.18
2024-01-20T16:52:30.962Z,5.40
2024-01-20T16:54:57.486Z,4.15
2024-01-20T16:57:40.446Z,4.88
2024-01-20T17:00:09.316Z,4.78
2024-01-20T17:02:36.255Z,3.97
2024-01-20T17:05:03.052Z,5.05
2024-01-20T17:07:29.624Z,5.35
2024-01-20T17:09:56.156Z,5.55
2024-01-20T17:12:23.828Z,3.83
2024-01-20T17:14:50.376Z,5.32
2024-01-20T17:17:16.966Z,4.65
2024-01-20T17:19:43.605Z,5.22
2024-01-20T17:22:10.186Z,4.30
2024-01-20T17:24:38.490Z,5.32
2024-01-20T17:27:05.522Z,4.35
2024-01-20T17:29:33.184Z,3.45
2024-01-20T17:32:02.716Z,4.60
2024-01-20T17:34:29.730Z,5.32
2024-01-20T17:36:56.867Z,4.95
2024-01-20T17:39:25.676Z,5.55
2024-01-20T17:41:58.928Z,6.15
2024-01-20T17:44:25.603Z,4.95
2024-01-20T17:46:52.152Z,4.32
2024-01-20T17:49:18.762Z,6.47
2024-01-20T17:51:45.572Z,5.28
2024-01-20T17:54:12.340Z,5.35
2024-01-20T17:56:39.403Z,5.22
2024-01-20T17:59:05.867Z,4.00
2024-01-20T18:01:32.982Z,4.72
2024-01-20T18:03:59.749Z,4.38
2024-01-20T18:06:27.100Z,5.97
2024-01-20T18:08:53.689Z,4.68
2024-01-20T18:11:20.234Z,4.95
2024-01-20T18:13:46.768Z,5.47
2024-01-20T18:16:13.375Z,9.10
2024-01-20T18:18:39.922Z,5.30
2024-01-20T18:21:07.450Z,6.25
2024-01-20T18:23:33.982Z,5.35
2024-01-20T18:26:00.612Z,7.47
2024-01-20T18:28:27.892Z,5.82
2024-01-20T18:30:54.749Z,5.72
2024-01-20T18:33:22.497Z,5.22
2024-01-20T18:35:49.113Z,4.57
2024-01-20T18:38:16.722Z,6.05
2024-01-20T18:40:43.302Z,5.05
2024-01-20T18:43:10.173Z,6.10
2024-01-20T18:45:36.723Z,8.27
2024-01-20T18:48:03.654Z,4.28
2024-01-20T18:50:30.712Z,3.70
2024-01-20T18:52:57.775Z,4.45
2024-01-20T18:55:24.352Z,3.85
2024-01-20T18:57:53.419Z,3.75
2024-01-20T19:00:20.011Z,5.53
2024-01-20T19:02:46.587Z,5.05
2024-01-20T19:05:13.514Z,5.25
2024-01-20T19:07:40.072Z,4.50
2024-01-20T19:10:10.774Z,3.63
2024-01-20T19:12:38.504Z,4.55
2024-01-20T19:15:09.181Z,3.92
2024-01-20T19:17:36.284Z,3.70
2024-01-20T19:20:02.861Z,4.97
2024-01-20T19:22:29.592Z,4.90
2024-01-20T19:24:57.122Z,4.07
2024-01-20T19:27:23.766Z,4.78
2024-01-20T19:29:50.333Z,7.60
2024-01-20T19:32:17.713Z,7.30
2024-01-20T19:34:45.281Z,7.45
2024-01-20T19:37:12.227Z,6.53
2024-01-20T19:39:39.183Z,6.97
2024-01-20T19:42:05.827Z,7.32
2024-01-20T19:44:32.297Z,7.32
2024-01-20T19:46:58.787Z,5.55
2024-01-20T19:49:25.762Z,6.80
2024-01-20T19:51:52.576Z,5.75
2024-01-20T19:54:19.115Z,5.93
2024-01-20T19:56:46.785Z,6.45
2024-01-20T19:59:14.774Z,7.13
2024-01-20T20:01:50.576Z,7.03
2024-01-20T20:04:18.611Z,6.53
2024-01-20T20:06:46.373Z,6.45
2024-01-20T20:09:13.722Z,5.88
2024-01-20T20:11:41.169Z,5.75
2024-01-20T20:14:11.931Z,7.32
2024-01-20T20:16:41.160Z,5.95
2024-01-20T20:19:08.521Z,6.57
2024-01-20T20:21:35.236Z,6.88
2024-01-20T20:24:01.757Z,7.95
2024-01-20T20:26:28.423Z,6.57
2024-01-20T20:28:54.902Z,5.88
2024-01-20T20:31:23.449Z,5.82
2024-01-20T20:33:51.225Z,5.50
2024-01-20T20:36:20.312Z,6.93
2024-01-20T20:38:47.337Z,5.38
2024-01-20T20:41:13.841Z,5.07
2024-01-20T20:43:40.342Z,5.10
2024-01-20T20:46:07.095Z,5.55
2024-01-20T20:48:33.728Z,4.25
2024-01-20T20:51:00.254Z,5.97
2024-01-20T20:53:26.947Z,5.13
2024-01-20T20:55:53.523Z,4.45
2024-01-20T20:58:20.097Z,3.40
2024-01-20T21:00:46.623Z,3.83
2024-01-20T21:03:13.739Z,6.55
2024-01-20T21:05:40.633Z,4.32
2024-01-20T21:08:07.494Z,3.65
2024-01-20T21:10:34.108Z,5.15
2024-01-20T21:13:00.823Z,3.13
2024-01-20T21:15:27.636Z,4.93
2024-01-20T21:17:54.398Z,6.65
2024-01-20T21:20:21.217Z,6.10
2024-01-20T21:22:47.875Z,6.25
2024-01-20T21:25:14.823Z,7.45
2024-01-20T21:27:41.642Z,5.75
2024-01-20T21:30:08.870Z,7.40
2024-01-20T21:32:35.599Z,4.50
2024-01-20T21:35:02.801Z,7.28
2024-01-20T21:37:29.410Z,6.22
2024-01-20T21:39:55.942Z,6.75
2024-01-20T21:42:22.481Z,5.28
2024-01-20T21:44:49.427Z,4.45
2024-01-20T21:47:15.918Z,4.45
2024-01-20T21:49:42.465Z,7.43
2024-01-20T21:52:09.001Z,6.93
2024-01-20T21:54:35.752Z,6.38
2024-01-20T21:57:02.295Z,5.05
2024-01-20T21:59:28.883Z,5.65
2024-01-20T22:01:55.416Z,7.32
2024-01-20T22:04:22.205Z,4.90
2024-01-20T22:06:51.031Z,8.25
2024-01-20T22:09:17.801Z,6.75
2024-01-20T22:11:44.340Z,5.47
2024-01-20T22:14:10.864Z,5.07
2024-01-20T22:16:37.380Z,6.82
2024-01-20T22:19:04.002Z,8.88
2024-01-20T22:21:30.873Z,8.15
2024-01-20T22:23:57.486Z,6.53
2024-01-20T22:26:23.956Z,9.50
2024-01-20T22:28:50.477Z,10.02
2024-01-20T22:31:17.183Z,7.00
2024-01-20T22:33:43.901Z,9.23
2024-01-20T22:36:10.449Z,9.45
2024-01-20T22:38:37.417Z,13.32
2024-01-20T22:41:06.132Z,6.32
2024-01-20T22:43:32.732Z,6.95
2024-01-20T22:45:59.303Z,7.65
2024-01-20T22:48:26.124Z,7.72
2024-01-20T22:50:52.786Z,8.80
2024-01-20T22:53:19.291Z,5.82
2024-01-20T22:55:45.830Z,4.78
2024-01-20T22:58:12.408Z,7.15
2024-01-20T23:00:40.100Z,8.40
2024-01-20T23:03:06.855Z,8.05
2024-01-20T23:05:33.529Z,8.65
2024-01-20T23:08:00.111Z,8.90
2024-01-20T23:10:27.423Z,7.47
2024-01-20T23:12:54.038Z,5.40
2024-01-20T23:15:20.738Z,5.18
2024-01-20T23:17:47.286Z,8.43
2024-01-20T23:20:15.820Z,6.85
2024-01-20T23:22:42.611Z,5.60
2024-01-20T23:25:10.466Z,10.65
2024-01-20T23:27:37.445Z,8.93
2024-01-20T23:30:04.430Z,6.80
2024-01-20T23:32:31.169Z,5.88
2024-01-20T23:34:57.876Z,7.35
2024-01-20T23:37:24.799Z,6.22
2024-01-20T23:39:51.353Z,6.13
2024-01-20T23:42:17.965Z,9.27
2024-01-20T23:44:44.504Z,6.53
2024-01-20T23:47:11.005Z,7.47
2024-01-20T23:49:37.760Z,5.80
2024-01-20T23:52:05.002Z,6.35
2024-01-20T23:54:31.538Z,5.65
2024-01-20T23:56:58.062Z,6.07
2024-01-20T23:59:24.523Z,8.48
